SBBV

Atlas Brasil Cantanhede Airport

Boa Vista, Brazil
TAF SBBV 231000Z 2312/2412 03002KT 9999 SCT015 TX28/2319Z TN24/2407Z BECMG 2313/2315 06002KT SCT020 BECMG 2315/2317 06008KT SCT025 FEW030TCU BE CMG 2317/2319 03006KT 5000 RA BKN030 FEW035TCU BECMG 2321/2323 31003KT B ECMG 2401/2403 09002KT FEW025 BECMG 2405/2407 09003KT FEW035 BECMG 2409/2 411 FEW025 FEW020TCU RMK PCQ
Issued Valid From Valid To
Jul-23 @ 10:00 UTC
(4 hours ago)
Jul-23 @ 12:00 UTC
(2 hours ago)
Jul-24 @ 12:00 UTC
(in 22 hours)
Jul-23 @ 12:00 to Jul-24 @ 12:00
TAF SBBV 231000Z 2312/2412 03002KT 9999 SCT015 TX28/2319Z TN24/2407Z
Becoming Jul-23 @ 13:00 to Jul-23 @ 15:00
BECMG 2313/2315 06002KT SCT020
Wind Visibility Clouds
60° at 2 knots 10,000+ meters
  • Scattered at 2,000' AGL
Becoming Jul-23 @ 15:00 to Jul-23 @ 21:00
BECMG 2315/2317 06008KT SCT025 FEW030TCU BE CMG 2317/2319 03006KT 5000 RA BKN030 FEW035TCU
Wind Visibility Clouds Conditions
60° at 8 knots 2,317 meters
  • Scattered at 2,500' AGL
  • Few at 3,000' AGL
  • Broken at 3,000' AGL
  • Rain
Becoming Jul-23 @ 21:00 to Jul-24 @ 05:00
BECMG 2321/2323 31003KT B ECMG 2401/2403 09002KT FEW025
Wind Visibility Clouds Conditions
310° at 3 knots 2,398 meters
  • Few at 2,500' AGL
  • Rain
Becoming Jul-24 @ 05:00 to Jul-24 @ 12:00
BECMG 2405/2407 09003KT FEW035
Wind Visibility Clouds Conditions
90° at 3 knots 2,398 meters
  • Few at 3,500' AGL
  • Rain
TAF SBBV 231000Z 2312/2412 03002KT 9999 SCT015 TX28/2319Z TN24/2407Z BECMG 2313/2315 06002KT SCT020 BECMG 2315/2317 06008KT SCT025 FEW030TCU BE CMG 2317/2319 03006KT 5000 RA BKN030 FEW035TCU BECMG 2321/2323 31003KT B ECMG 2401/2403 09002KT FEW025 BECMG 2405/2407 09003KT FEW035 BECMG 2409/2 411 FEW025 FEW020TCU RMK PCQ
Issued Jul-23 @ 10:00 UTC
(4 hours ago)
Valid From Jul-23 @ 12:00 UTC
(2 hours ago)
Valid To Jul-24 @ 12:00 UTC
(in 22 hours)
Jul-23 @ 12:00 - Jul-24 @ 12:00
Becoming Jul-23 @ 13:00 - Jul-23 @ 15:00
Wind Visibility
60° at 2 knots 10,000+ meters
Clouds
  • Scattered at 2,000' AGL
Becoming Jul-23 @ 15:00 - Jul-23 @ 21:00
Wind Visibility
60° at 8 knots 2,317 meters
Clouds
  • Scattered at 2,500' AGL
  • Few at 3,000' AGL
  • Broken at 3,000' AGL
Conditions
  • Rain
Becoming Jul-23 @ 21:00 - Jul-24 @ 05:00
Wind Visibility
310° at 3 knots 2,398 meters
Clouds
  • Few at 2,500' AGL
Conditions
  • Rain
Becoming Jul-24 @ 05:00 - Jul-24 @ 12:00
Wind Visibility
90° at 3 knots 2,398 meters
Clouds
  • Few at 3,500' AGL
Conditions
  • Rain